sensor_id;sensor_type;location;lat;lon;timestamp;P1;durP1;ratioP1;P2;durP2;ratioP2
4460;SDS011;2243;48.812;9.232;2023-01-01T00:02:17;250.43;;;144.37;;
4460;SDS011;2243;48.812;9.232;2023-01-01T00:04:48;230.87;;;142.23;;
4460;SDS011;2243;48.812;9.232;2023-01-01T00:07:19;226.57;;;137.00;;
4460;SDS011;2243;48.812;9.232;2023-01-01T00:09:50;228.57;;;135.63;;
4460;SDS011;2243;48.812;9.232;2023-01-01T00:12:39;210.10;;;125.30;;
4460;SDS011;2243;48.812;9.232;2023-01-01T00:15:10;200.83;;;117.67;;
4460;SDS011;2243;48.812;9.232;2023-01-01T00:17:41;231.80;;;136.00;;
4460;SDS011;2243;48.812;9.232;2023-01-01T00:20:12;230.80;;;140.20;;
4460;SDS011;2243;48.812;9.232;2023-01-01T00:22:43;251.13;;;148.70;;
4460;SDS011;2243;48.812;9.232;2023-01-01T00:25:25;252.40;;;149.20;;
4460;SDS011;2243;48.812;9.232;2023-01-01T00:27:56;246.50;;;146.70;;
4460;SDS011;2243;48.812;9.232;2023-01-01T00:30:27;274.67;;;157.27;;
4460;SDS011;2243;48.812;9.232;2023-01-01T00:32:57;257.80;;;155.67;;
4460;SDS011;2243;48.812;9.232;2023-01-01T00:35:28;247.97;;;145.90;;
4460;SDS011;2243;48.812;9.232;2023-01-01T00:37:59;241.33;;;137.30;;
4460;SDS011;2243;48.812;9.232;2023-01-01T00:40:30;229.33;;;133.87;;
4460;SDS011;2243;48.812;9.232;2023-01-01T00:43:01;234.23;;;129.60;;
4460;SDS011;2243;48.812;9.232;2023-01-01T00:45:32;177.63;;;106.10;;
4460;SDS011;2243;48.812;9.232;2023-01-01T00:48:03;160.77;;;100.50;;
4460;SDS011;2243;48.812;9.232;2023-01-01T00:50:35;163.47;;;94.83;;
4460;SDS011;2243;48.812;9.232;2023-01-01T00:53:06;133.10;;;79.20;;
4460;SDS011;2243;48.812;9.232;2023-01-01T00:55:38;122.00;;;73.10;;
4460;SDS011;2243;48.812;9.232;2023-01-01T00:58:09;116.13;;;66.00;;
4460;SDS011;2243;48.812;9.232;2023-01-01T01:00:41;114.40;;;63.87;;
4460;SDS011;2243;48.812;9.232;2023-01-01T01:03:13;105.10;;;62.77;;
4460;SDS011;2243;48.812;9.232;2023-01-01T01:05:58;89.40;;;54.63;;
4460;SDS011;2243;48.812;9.232;2023-01-01T01:08:43;105.37;;;60.00;;
4460;SDS011;2243;48.812;9.232;2023-01-01T01:13:53;84.63;;;50.43;;
4460;SDS011;2243;48.812;9.232;2023-01-01T01:16:26;69.37;;;42.57;;
4460;SDS011;2243;48.812;9.232;2023-01-01T01:19:04;70.07;;;41.80;;
4460;SDS011;2243;48.812;9.232;2023-01-01T01:21:36;61.23;;;36.70;;
4460;SDS011;2243;48.812;9.232;2023-01-01T01:24:08;53.13;;;33.10;;
4460;SDS011;2243;48.812;9.232;2023-01-01T01:26:39;47.93;;;30.97;;
4460;SDS011;2243;48.812;9.232;2023-01-01T01:29:10;43.27;;;29.27;;
4460;SDS011;2243;48.812;9.232;2023-01-01T01:31:41;46.60;;;27.93;;
4460;SDS011;2243;48.812;9.232;2023-01-01T01:34:12;50.57;;;28.93;;
4460;SDS011;2243;48.812;9.232;2023-01-01T01:36:46;54.67;;;32.90;;
4460;SDS011;2243;48.812;9.232;2023-01-01T01:39:17;47.60;;;31.00;;
4460;SDS011;2243;48.812;9.232;2023-01-01T01:41:49;57.77;;;31.70;;
4460;SDS011;2243;48.812;9.232;2023-01-01T01:47:32;47.80;;;31.97;;
4460;SDS011;2243;48.812;9.232;2023-01-01T01:50:10;47.03;;;31.33;;
4460;SDS011;2243;48.812;9.232;2023-01-01T01:53:06;58.97;;;36.13;;
4460;SDS011;2243;48.812;9.232;2023-01-01T01:55:47;61.00;;;38.07;;
4460;SDS011;2243;48.812;9.232;2023-01-01T01:58:31;117.43;;;64.00;;
4460;SDS011;2243;48.812;9.232;2023-01-01T02:01:03;92.00;;;58.03;;
4460;SDS011;2243;48.812;9.232;2023-01-01T02:06:28;125.27;;;70.30;;
4460;SDS011;2243;48.812;9.232;2023-01-01T02:09:03;124.83;;;70.10;;
4460;SDS011;2243;48.812;9.232;2023-01-01T02:11:36;108.17;;;63.70;;
4460;SDS011;2243;48.812;9.232;2023-01-01T02:14:10;126.23;;;68.37;;
4460;SDS011;2243;48.812;9.232;2023-01-01T02:16:54;122.63;;;67.17;;
4460;SDS011;2243;48.812;9.232;2023-01-01T02:19:57;106.70;;;60.23;;
4460;SDS011;2243;48.812;9.232;2023-01-01T02:31:36;90.07;;;50.07;;
4460;SDS011;2243;48.812;9.232;2023-01-01T02:34:13;87.17;;;54.60;;
4460;SDS011;2243;48.812;9.232;2023-01-01T02:36:48;75.13;;;47.07;;
4460;SDS011;2243;48.812;9.232;2023-01-01T02:39:24;61.73;;;37.87;;
4460;SDS011;2243;48.812;9.232;2023-01-01T02:42:00;51.00;;;31.50;;
4460;SDS011;2243;48.812;9.232;2023-01-01T02:44:36;47.30;;;30.33;;
4460;SDS011;2243;48.812;9.232;2023-01-01T02:47:18;48.70;;;29.30;;
4460;SDS011;2243;48.812;9.232;2023-01-01T02:49:55;41.80;;;26.43;;
4460;SDS011;2243;48.812;9.232;2023-01-01T02:55:58;43.20;;;26.43;;
4460;SDS011;2243;48.812;9.232;2023-01-01T02:59:08;36.20;;;24.50;;
4460;SDS011;2243;48.812;9.232;2023-01-01T03:02:23;37.40;;;23.17;;
4460;SDS011;2243;48.812;9.232;2023-01-01T03:05:54;31.13;;;21.53;;
4460;SDS011;2243;48.812;9.232;2023-01-01T03:12:03;31.53;;;19.57;;
4460;SDS011;2243;48.812;9.232;2023-01-01T03:15:11;31.33;;;20.60;;
4460;SDS011;2243;48.812;9.232;2023-01-01T03:17:58;28.30;;;19.40;;
4460;SDS011;2243;48.812;9.232;2023-01-01T03:20:59;36.60;;;20.93;;
4460;SDS011;2243;48.812;9.232;2023-01-01T03:23:36;60.00;;;38.47;;
4460;SDS011;2243;48.812;9.232;2023-01-01T03:26:19;75.90;;;46.43;;
4460;SDS011;2243;48.812;9.232;2023-01-01T03:28:56;84.47;;;48.83;;
4460;SDS011;2243;48.812;9.232;2023-01-01T03:31:29;78.57;;;46.97;;
4460;SDS011;2243;48.812;9.232;2023-01-01T03:34:02;88.93;;;48.67;;
4460;SDS011;2243;48.812;9.232;2023-01-01T03:36:43;98.47;;;53.27;;
4460;SDS011;2243;48.812;9.232;2023-01-01T03:39:22;98.53;;;53.47;;
4460;SDS011;2243;48.812;9.232;2023-01-01T03:42:08;105.13;;;54.77;;
4460;SDS011;2243;48.812;9.232;2023-01-01T03:45:00;118.03;;;59.67;;
4460;SDS011;2243;48.812;9.232;2023-01-01T03:47:41;116.73;;;59.90;;
4460;SDS011;2243;48.812;9.232;2023-01-01T03:50:12;105.33;;;55.63;;
4460;SDS011;2243;48.812;9.232;2023-01-01T03:56:34;104.50;;;55.00;;
4460;SDS011;2243;48.812;9.232;2023-01-01T04:01:52;83.40;;;50.43;;
4460;SDS011;2243;48.812;9.232;2023-01-01T04:04:27;69.43;;;42.80;;
4460;SDS011;2243;48.812;9.232;2023-01-01T04:06:59;71.50;;;40.37;;
4460;SDS011;2243;48.812;9.232;2023-01-01T04:09:46;58.53;;;34.07;;
4460;SDS011;2243;48.812;9.232;2023-01-01T04:12:19;55.07;;;32.73;;
4460;SDS011;2243;48.812;9.232;2023-01-01T04:14:51;51.33;;;30.57;;
4460;SDS011;2243;48.812;9.232;2023-01-01T04:17:22;45.43;;;26.30;;
4460;SDS011;2243;48.812;9.232;2023-01-01T04:19:53;32.60;;;22.50;;
4460;SDS011;2243;48.812;9.232;2023-01-01T04:22:24;43.27;;;24.67;;
4460;SDS011;2243;48.812;9.232;2023-01-01T04:24:55;25.60;;;17.10;;
4460;SDS011;2243;48.812;9.232;2023-01-01T04:27:26;26.73;;;17.90;;
4460;SDS011;2243;48.812;9.232;2023-01-01T04:29:57;24.07;;;15.70;;
4460;SDS011;2243;48.812;9.232;2023-01-01T04:32:28;26.10;;;14.37;;
4460;SDS011;2243;48.812;9.232;2023-01-01T04:34:59;26.30;;;16.60;;
4460;SDS011;2243;48.812;9.232;2023-01-01T04:37:30;26.50;;;15.60;;
4460;SDS011;2243;48.812;9.232;2023-01-01T04:40:01;29.37;;;17.83;;
4460;SDS011;2243;48.812;9.232;2023-01-01T04:42:34;37.83;;;23.13;;
4460;SDS011;2243;48.812;9.232;2023-01-01T04:45:05;34.07;;;21.37;;
4460;SDS011;2243;48.812;9.232;2023-01-01T04:47:37;36.50;;;19.67;;
4460;SDS011;2243;48.812;9.232;2023-01-01T04:50:08;29.83;;;19.20;;
4460;SDS011;2243;48.812;9.232;2023-01-01T04:52:39;29.00;;;17.20;;
4460;SDS011;2243;48.812;9.232;2023-01-01T04:55:10;19.10;;;12.87;;
4460;SDS011;2243;48.812;9.232;2023-01-01T04:57:41;15.60;;;9.73;;
4460;SDS011;2243;48.812;9.232;2023-01-01T05:00:12;13.43;;;9.00;;
4460;SDS011;2243;48.812;9.232;2023-01-01T05:02:44;14.37;;;8.30;;
4460;SDS011;2243;48.812;9.232;2023-01-01T05:05:15;11.50;;;7.23;;
4460;SDS011;2243;48.812;9.232;2023-01-01T05:07:48;12.90;;;8.10;;
4460;SDS011;2243;48.812;9.232;2023-01-01T05:10:19;9.93;;;6.97;;
4460;SDS011;2243;48.812;9.232;2023-01-01T05:12:50;8.70;;;6.97;;
4460;SDS011;2243;48.812;9.232;2023-01-01T05:15:20;9.13;;;6.30;;
4460;SDS011;2243;48.812;9.232;2023-01-01T05:17:52;12.60;;;6.60;;
4460;SDS011;2243;48.812;9.232;2023-01-01T05:20:24;9.83;;;6.40;;
4460;SDS011;2243;48.812;9.232;2023-01-01T05:22:54;9.13;;;5.93;;
4460;SDS011;2243;48.812;9.232;2023-01-01T05:25:25;9.47;;;5.90;;
4460;SDS011;2243;48.812;9.232;2023-01-01T05:27:56;7.77;;;5.93;;
4460;SDS011;2243;48.812;9.232;2023-01-01T05:30:27;6.80;;;6.10;;
4460;SDS011;2243;48.812;9.232;2023-01-01T05:32:58;7.20;;;5.80;;
4460;SDS011;2243;48.812;9.232;2023-01-01T05:35:29;6.63;;;5.50;;
4460;SDS011;2243;48.812;9.232;2023-01-01T05:38:00;7.23;;;6.00;;
4460;SDS011;2243;48.812;9.232;2023-01-01T05:40:31;15.83;;;5.27;;
4460;SDS011;2243;48.812;9.232;2023-01-01T05:43:02;10.17;;;6.23;;
4460;SDS011;2243;48.812;9.232;2023-01-01T05:45:33;9.67;;;5.10;;
4460;SDS011;2243;48.812;9.232;2023-01-01T05:48:04;9.47;;;5.60;;
4460;SDS011;2243;48.812;9.232;2023-01-01T05:50:36;7.73;;;5.37;;
4460;SDS011;2243;48.812;9.232;2023-01-01T05:53:07;7.30;;;5.60;;
4460;SDS011;2243;48.812;9.232;2023-01-01T05:55:38;7.23;;;5.53;;
4460;SDS011;2243;48.812;9.232;2023-01-01T05:58:09;6.17;;;5.33;;
4460;SDS011;2243;48.812;9.232;2023-01-01T06:00:39;7.73;;;5.63;;
4460;SDS011;2243;48.812;9.232;2023-01-01T06:03:10;9.23;;;5.03;;
4460;SDS011;2243;48.812;9.232;2023-01-01T06:05:41;6.43;;;5.03;;
4460;SDS011;2243;48.812;9.232;2023-01-01T06:08:12;9.57;;;5.00;;
4460;SDS011;2243;48.812;9.232;2023-01-01T06:10:44;6.37;;;5.57;;
4460;SDS011;2243;48.812;9.232;2023-01-01T06:13:14;11.43;;;6.07;;
4460;SDS011;2243;48.812;9.232;2023-01-01T06:15:51;7.40;;;5.00;;
4460;SDS011;2243;48.812;9.232;2023-01-01T06:18:30;6.50;;;4.70;;
4460;SDS011;2243;48.812;9.232;2023-01-01T06:21:04;6.83;;;5.87;;
4460;SDS011;2243;48.812;9.232;2023-01-01T06:23:43;5.43;;;4.83;;
4460;SDS011;2243;48.812;9.232;2023-01-01T06:26:19;5.37;;;4.20;;
4460;SDS011;2243;48.812;9.232;2023-01-01T06:28:53;4.80;;;4.30;;
4460;SDS011;2243;48.812;9.232;2023-01-01T06:31:25;4.80;;;4.30;;
4460;SDS011;2243;48.812;9.232;2023-01-01T06:33:58;6.07;;;4.57;;
4460;SDS011;2243;48.812;9.232;2023-01-01T06:36:29;6.63;;;4.70;;
4460;SDS011;2243;48.812;9.232;2023-01-01T06:39:00;7.00;;;4.50;;
4460;SDS011;2243;48.812;9.232;2023-01-01T06:41:32;5.90;;;5.30;;
4460;SDS011;2243;48.812;9.232;2023-01-01T06:44:03;5.53;;;4.57;;
4460;SDS011;2243;48.812;9.232;2023-01-01T06:46:35;9.90;;;5.67;;
4460;SDS011;2243;48.812;9.232;2023-01-01T06:49:09;8.90;;;5.70;;
4460;SDS011;2243;48.812;9.232;2023-01-01T06:51:41;8.53;;;5.50;;
4460;SDS011;2243;48.812;9.232;2023-01-01T06:54:13;5.90;;;5.33;;
4460;SDS011;2243;48.812;9.232;2023-01-01T06:56:44;8.20;;;4.97;;
4460;SDS011;2243;48.812;9.232;2023-01-01T06:59:15;6.80;;;6.10;;
4460;SDS011;2243;48.812;9.232;2023-01-01T07:01:46;10.03;;;5.70;;
4460;SDS011;2243;48.812;9.232;2023-01-01T07:04:17;8.83;;;5.73;;
4460;SDS011;2243;48.812;9.232;2023-01-01T07:06:48;8.97;;;6.20;;
4460;SDS011;2243;48.812;9.232;2023-01-01T07:09:19;9.20;;;5.90;;
4460;SDS011;2243;48.812;9.232;2023-01-01T07:11:50;6.30;;;5.70;;
4460;SDS011;2243;48.812;9.232;2023-01-01T07:14:21;6.63;;;5.70;;
4460;SDS011;2243;48.812;9.232;2023-01-01T07:16:52;7.77;;;6.30;;
4460;SDS011;2243;48.812;9.232;2023-01-01T07:19:25;8.00;;;6.70;;
4460;SDS011;2243;48.812;9.232;2023-01-01T07:21:56;9.73;;;6.43;;
4460;SDS011;2243;48.812;9.232;2023-01-01T07:24:27;10.40;;;6.63;;
4460;SDS011;2243;48.812;9.232;2023-01-01T07:26:57;9.47;;;6.20;;
4460;SDS011;2243;48.812;9.232;2023-01-01T07:29:28;8.30;;;6.23;;
4460;SDS011;2243;48.812;9.232;2023-01-01T07:31:59;9.13;;;6.20;;
4460;SDS011;2243;48.812;9.232;2023-01-01T07:34:31;10.87;;;7.20;;
4460;SDS011;2243;48.812;9.232;2023-01-01T07:37:02;11.43;;;6.57;;
4460;SDS011;2243;48.812;9.232;2023-01-01T07:39:33;10.27;;;7.23;;
4460;SDS011;2243;48.812;9.232;2023-01-01T07:42:03;10.40;;;7.60;;
4460;SDS011;2243;48.812;9.232;2023-01-01T07:44:40;10.53;;;8.43;;
4460;SDS011;2243;48.812;9.232;2023-01-01T07:47:15;13.30;;;9.93;;
4460;SDS011;2243;48.812;9.232;2023-01-01T07:49:54;13.83;;;9.60;;
4460;SDS011;2243;48.812;9.232;2023-01-01T07:52:25;23.17;;;16.20;;
4460;SDS011;2243;48.812;9.232;2023-01-01T07:54:59;23.27;;;16.30;;
4460;SDS011;2243;48.812;9.232;2023-01-01T07:57:30;29.60;;;18.70;;
4460;SDS011;2243;48.812;9.232;2023-01-01T08:00:01;32.33;;;19.80;;
4460;SDS011;2243;48.812;9.232;2023-01-01T08:02:32;29.97;;;21.90;;
4460;SDS011;2243;48.812;9.232;2023-01-01T08:05:03;32.87;;;23.17;;
4460;SDS011;2243;48.812;9.232;2023-01-01T08:07:34;34.60;;;22.83;;
4460;SDS011;2243;48.812;9.232;2023-01-01T08:10:06;38.80;;;22.93;;
4460;SDS011;2243;48.812;9.232;2023-01-01T08:12:38;34.03;;;22.93;;
4460;SDS011;2243;48.812;9.232;2023-01-01T08:15:09;34.07;;;23.07;;
4460;SDS011;2243;48.812;9.232;2023-01-01T08:17:40;32.00;;;22.73;;
4460;SDS011;2243;48.812;9.232;2023-01-01T08:20:16;38.40;;;26.30;;
4460;SDS011;2243;48.812;9.232;2023-01-01T08:22:47;41.87;;;26.43;;
4460;SDS011;2243;48.812;9.232;2023-01-01T08:25:18;42.97;;;25.73;;
4460;SDS011;2243;48.812;9.232;2023-01-01T08:27:49;36.80;;;23.23;;
4460;SDS011;2243;48.812;9.232;2023-01-01T08:30:20;33.00;;;22.10;;
4460;SDS011;2243;48.812;9.232;2023-01-01T08:32:51;31.30;;;19.50;;
4460;SDS011;2243;48.812;9.232;2023-01-01T08:35:22;35.03;;;21.80;;
4460;SDS011;2243;48.812;9.232;2023-01-01T08:37:53;30.77;;;20.07;;
4460;SDS011;2243;48.812;9.232;2023-01-01T08:40:23;32.27;;;21.00;;
4460;SDS011;2243;48.812;9.232;2023-01-01T08:42:54;28.93;;;19.50;;
4460;SDS011;2243;48.812;9.232;2023-01-01T08:45:31;37.90;;;22.13;;
4460;SDS011;2243;48.812;9.232;2023-01-01T08:48:02;28.13;;;18.90;;
4460;SDS011;2243;48.812;9.232;2023-01-01T08:50:33;35.10;;;22.13;;
4460;SDS011;2243;48.812;9.232;2023-01-01T08:53:04;30.37;;;20.50;;
4460;SDS011;2243;48.812;9.232;2023-01-01T08:55:35;34.20;;;22.97;;
4460;SDS011;2243;48.812;9.232;2023-01-01T08:58:06;27.77;;;19.93;;
4460;SDS011;2243;48.812;9.232;2023-01-01T09:00:37;29.37;;;19.07;;
4460;SDS011;2243;48.812;9.232;2023-01-01T09:03:08;31.20;;;19.17;;
4460;SDS011;2243;48.812;9.232;2023-01-01T09:05:39;24.00;;;16.47;;
4460;SDS011;2243;48.812;9.232;2023-01-01T09:08:14;21.80;;;14.00;;
4460;SDS011;2243;48.812;9.232;2023-01-01T09:10:46;22.80;;;16.17;;
4460;SDS011;2243;48.812;9.232;2023-01-01T09:13:18;20.50;;;13.60;;
4460;SDS011;2243;48.812;9.232;2023-01-01T09:15:51;21.10;;;13.57;;
4460;SDS011;2243;48.812;9.232;2023-01-01T09:18:22;22.40;;;13.70;;
4460;SDS011;2243;48.812;9.232;2023-01-01T09:20:53;17.30;;;12.20;;
4460;SDS011;2243;48.812;9.232;2023-01-01T09:23:23;19.90;;;12.70;;
4460;SDS011;2243;48.812;9.232;2023-01-01T09:25:54;17.77;;;13.30;;
4460;SDS011;2243;48.812;9.232;2023-01-01T09:28:27;15.87;;;11.03;;
4460;SDS011;2243;48.812;9.232;2023-01-01T09:30:58;15.70;;;11.73;;
4460;SDS011;2243;48.812;9.232;2023-01-01T09:33:33;16.30;;;11.83;;
4460;SDS011;2243;48.812;9.232;2023-01-01T09:36:11;15.17;;;11.57;;
4460;SDS011;2243;48.812;9.232;2023-01-01T09:38:54;17.77;;;13.50;;
4460;SDS011;2243;48.812;9.232;2023-01-01T09:41:37;17.90;;;12.40;;
4460;SDS011;2243;48.812;9.232;2023-01-01T09:47:22;15.97;;;11.63;;
4460;SDS011;2243;48.812;9.232;2023-01-01T09:49:59;16.60;;;12.70;;
4460;SDS011;2243;48.812;9.232;2023-01-01T09:52:38;21.03;;;15.20;;
4460;SDS011;2243;48.812;9.232;2023-01-01T09:55:38;17.17;;;13.00;;
4460;SDS011;2243;48.812;9.232;2023-01-01T09:58:18;23.57;;;16.13;;
4460;SDS011;2243;48.812;9.232;2023-01-01T10:00:55;21.20;;;15.87;;
4460;SDS011;2243;48.812;9.232;2023-01-01T10:06:23;21.63;;;15.33;;
4460;SDS011;2243;48.812;9.232;2023-01-01T10:09:06;19.40;;;13.77;;
4460;SDS011;2243;48.812;9.232;2023-01-01T10:14:55;20.83;;;11.70;;
4460;SDS011;2243;48.812;9.232;2023-01-01T10:17:52;16.03;;;11.20;;
4460;SDS011;2243;48.812;9.232;2023-01-01T10:20:30;12.20;;;10.50;;
4460;SDS011;2243;48.812;9.232;2023-01-01T10:23:13;17.30;;;11.80;;
4460;SDS011;2243;48.812;9.232;2023-01-01T10:25:54;17.90;;;12.20;;
4460;SDS011;2243;48.812;9.232;2023-01-01T10:28:37;19.47;;;11.10;;
4460;SDS011;2243;48.812;9.232;2023-01-01T10:31:28;17.50;;;10.93;;
4460;SDS011;2243;48.812;9.232;2023-01-01T10:36:54;17.20;;;10.70;;
4460;SDS011;2243;48.812;9.232;2023-01-01T10:39:28;15.87;;;11.50;;
4460;SDS011;2243;48.812;9.232;2023-01-01T10:41:59;22.07;;;11.37;;
4460;SDS011;2243;48.812;9.232;2023-01-01T10:44:32;16.17;;;10.17;;
4460;SDS011;2243;48.812;9.232;2023-01-01T10:47:12;16.57;;;10.20;;
4460;SDS011;2243;48.812;9.232;2023-01-01T10:50:01;20.90;;;11.10;;
4460;SDS011;2243;48.812;9.232;2023-01-01T10:52:37;14.47;;;9.20;;
4460;SDS011;2243;48.812;9.232;2023-01-01T10:55:20;13.30;;;9.50;;
4460;SDS011;2243;48.812;9.232;2023-01-01T10:57:55;17.63;;;10.60;;
4460;SDS011;2243;48.812;9.232;2023-01-01T11:00:26;11.83;;;9.13;;
4460;SDS011;2243;48.812;9.232;2023-01-01T11:03:04;16.20;;;10.80;;
4460;SDS011;2243;48.812;9.232;2023-01-01T11:05:59;15.53;;;10.47;;
4460;SDS011;2243;48.812;9.232;2023-01-01T11:08:34;17.33;;;10.87;;
4460;SDS011;2243;48.812;9.232;2023-01-01T11:11:16;11.50;;;9.57;;
4460;SDS011;2243;48.812;9.232;2023-01-01T11:14:02;12.93;;;9.30;;
4460;SDS011;2243;48.812;9.232;2023-01-01T11:16:37;17.93;;;9.70;;
4460;SDS011;2243;48.812;9.232;2023-01-01T11:19:14;14.40;;;9.23;;
4460;SDS011;2243;48.812;9.232;2023-01-01T11:22:08;10.70;;;7.90;;
4460;SDS011;2243;48.812;9.232;2023-01-01T11:25:21;12.47;;;8.30;;
4460;SDS011;2243;48.812;9.232;2023-01-01T11:30:57;8.57;;;6.73;;
4460;SDS011;2243;48.812;9.232;2023-01-01T11:33:47;8.00;;;6.50;;
4460;SDS011;2243;48.812;9.232;2023-01-01T11:36:28;9.90;;;7.00;;
4460;SDS011;2243;48.812;9.232;2023-01-01T11:39:21;10.43;;;7.37;;
4460;SDS011;2243;48.812;9.232;2023-01-01T11:41:56;8.63;;;6.07;;
4460;SDS011;2243;48.812;9.232;2023-01-01T11:52:44;5.97;;;5.10;;
4460;SDS011;2243;48.812;9.232;2023-01-01T11:55:36;6.07;;;5.00;;
4460;SDS011;2243;48.812;9.232;2023-01-01T12:03:51;6.17;;;4.90;;
4460;SDS011;2243;48.812;9.232;2023-01-01T12:09:34;5.80;;;4.50;;
4460;SDS011;2243;48.812;9.232;2023-01-01T12:12:38;4.00;;;3.60;;
4460;SDS011;2243;48.812;9.232;2023-01-01T12:15:30;5.97;;;3.63;;
4460;SDS011;2243;48.812;9.232;2023-01-01T12:18:21;5.20;;;3.70;;
4460;SDS011;2243;48.812;9.232;2023-01-01T12:21:15;4.30;;;3.90;;
4460;SDS011;2243;48.812;9.232;2023-01-01T12:23:57;7.40;;;4.13;;
4460;SDS011;2243;48.812;9.232;2023-01-01T12:26:32;6.63;;;4.70;;
4460;SDS011;2243;48.812;9.232;2023-01-01T12:29:31;10.47;;;4.43;;
4460;SDS011;2243;48.812;9.232;2023-01-01T12:41:49;3.83;;;3.53;;
4460;SDS011;2243;48.812;9.232;2023-01-01T12:47:46;5.73;;;3.17;;
4460;SDS011;2243;48.812;9.232;2023-01-01T12:53:38;10.53;;;3.60;;
4460;SDS011;2243;48.812;9.232;2023-01-01T12:56:41;6.60;;;3.50;;
4460;SDS011;2243;48.812;9.232;2023-01-01T12:59:22;8.60;;;3.50;;
4460;SDS011;2243;48.812;9.232;2023-01-01T13:02:16;3.43;;;2.50;;
4460;SDS011;2243;48.812;9.232;2023-01-01T13:08:06;6.63;;;2.80;;
4460;SDS011;2243;48.812;9.232;2023-01-01T13:10:41;5.70;;;3.90;;
4460;SDS011;2243;48.812;9.232;2023-01-01T13:13:15;3.10;;;2.70;;
4460;SDS011;2243;48.812;9.232;2023-01-01T13:15:54;3.00;;;2.70;;
4460;SDS011;2243;48.812;9.232;2023-01-01T13:18:35;3.47;;;2.43;;
4460;SDS011;2243;48.812;9.232;2023-01-01T13:23:51;3.63;;;2.47;;
4460;SDS011;2243;48.812;9.232;2023-01-01T13:37:29;3.80;;;2.37;;
4460;SDS011;2243;48.812;9.232;2023-01-01T13:42:46;4.13;;;2.20;;
4460;SDS011;2243;48.812;9.232;2023-01-01T13:45:37;4.27;;;2.07;;
4460;SDS011;2243;48.812;9.232;2023-01-01T13:48:55;2.57;;;2.37;;
4460;SDS011;2243;48.812;9.232;2023-01-01T13:55:18;3.37;;;2.60;;
4460;SDS011;2243;48.812;9.232;2023-01-01T13:58:09;4.60;;;2.60;;
4460;SDS011;2243;48.812;9.232;2023-01-01T14:01:40;6.07;;;2.53;;
4460;SDS011;2243;48.812;9.232;2023-01-01T14:07:18;5.93;;;2.97;;
4460;SDS011;2243;48.812;9.232;2023-01-01T14:15:38;8.73;;;3.20;;
4460;SDS011;2243;48.812;9.232;2023-01-01T14:18:33;8.77;;;3.53;;
4460;SDS011;2243;48.812;9.232;2023-01-01T14:21:13;4.00;;;3.60;;
4460;SDS011;2243;48.812;9.232;2023-01-01T14:23:50;5.97;;;3.70;;
4460;SDS011;2243;48.812;9.232;2023-01-01T14:26:35;8.70;;;3.70;;
4460;SDS011;2243;48.812;9.232;2023-01-01T14:29:08;6.80;;;3.77;;
4460;SDS011;2243;48.812;9.232;2023-01-01T14:31:52;4.63;;;3.37;;
4460;SDS011;2243;48.812;9.232;2023-01-01T14:34:30;5.33;;;3.80;;
4460;SDS011;2243;48.812;9.232;2023-01-01T14:37:04;8.67;;;4.43;;
4460;SDS011;2243;48.812;9.232;2023-01-01T14:42:58;4.60;;;2.90;;
4460;SDS011;2243;48.812;9.232;2023-01-01T14:45:35;7.40;;;4.77;;
4460;SDS011;2243;48.812;9.232;2023-01-01T14:48:18;5.87;;;4.67;;
4460;SDS011;2243;48.812;9.232;2023-01-01T14:50:50;8.17;;;5.67;;
4460;SDS011;2243;48.812;9.232;2023-01-01T14:53:23;11.23;;;5.20;;
4460;SDS011;2243;48.812;9.232;2023-01-01T14:56:00;7.80;;;5.60;;
4460;SDS011;2243;48.812;9.232;2023-01-01T14:58:38;7.87;;;6.03;;
4460;SDS011;2243;48.812;9.232;2023-01-01T15:01:14;8.70;;;6.27;;
4460;SDS011;2243;48.812;9.232;2023-01-01T15:04:02;10.97;;;6.40;;
4460;SDS011;2243;48.812;9.232;2023-01-01T15:06:51;13.07;;;5.70;;
4460;SDS011;2243;48.812;9.232;2023-01-01T15:09:36;8.30;;;5.10;;
4460;SDS011;2243;48.812;9.232;2023-01-01T15:12:10;8.23;;;4.90;;
4460;SDS011;2243;48.812;9.232;2023-01-01T15:14:43;5.90;;;5.03;;
4460;SDS011;2243;48.812;9.232;2023-01-01T15:17:18;11.77;;;5.33;;
4460;SDS011;2243;48.812;9.232;2023-01-01T15:20:02;14.27;;;5.27;;
4460;SDS011;2243;48.812;9.232;2023-01-01T15:22:54;9.23;;;6.13;;
4460;SDS011;2243;48.812;9.232;2023-01-01T15:25:27;8.03;;;5.40;;
4460;SDS011;2243;48.812;9.232;2023-01-01T15:28:00;14.17;;;5.40;;
4460;SDS011;2243;48.812;9.232;2023-01-01T15:30:31;7.60;;;5.20;;
4460;SDS011;2243;48.812;9.232;2023-01-01T15:33:07;8.23;;;5.17;;
4460;SDS011;2243;48.812;9.232;2023-01-01T15:35:48;5.60;;;5.10;;
4460;SDS011;2243;48.812;9.232;2023-01-01T15:38:22;7.93;;;5.63;;
4460;SDS011;2243;48.812;9.232;2023-01-01T15:40:56;12.17;;;6.53;;
4460;SDS011;2243;48.812;9.232;2023-01-01T15:43:28;7.63;;;6.40;;
4460;SDS011;2243;48.812;9.232;2023-01-01T15:46:13;14.07;;;7.60;;
4460;SDS011;2243;48.812;9.232;2023-01-01T15:48:56;12.87;;;7.53;;
4460;SDS011;2243;48.812;9.232;2023-01-01T15:51:27;17.80;;;8.17;;
4460;SDS011;2243;48.812;9.232;2023-01-01T15:53:59;11.57;;;7.83;;
4460;SDS011;2243;48.812;9.232;2023-01-01T15:56:38;16.83;;;8.30;;
4460;SDS011;2243;48.812;9.232;2023-01-01T15:59:26;10.70;;;6.50;;
4460;SDS011;2243;48.812;9.232;2023-01-01T16:04:51;8.70;;;7.40;;
4460;SDS011;2243;48.812;9.232;2023-01-01T16:07:23;10.17;;;6.37;;
4460;SDS011;2243;48.812;9.232;2023-01-01T16:09:55;7.50;;;5.93;;
4460;SDS011;2243;48.812;9.232;2023-01-01T16:12:28;9.63;;;6.40;;
4460;SDS011;2243;48.812;9.232;2023-01-01T16:14:59;8.10;;;6.10;;
4460;SDS011;2243;48.812;9.232;2023-01-01T16:17:30;11.80;;;6.87;;
4460;SDS011;2243;48.812;9.232;2023-01-01T16:20:01;11.73;;;7.63;;
4460;SDS011;2243;48.812;9.232;2023-01-01T16:22:32;11.97;;;6.47;;
4460;SDS011;2243;48.812;9.232;2023-01-01T16:27:43;14.93;;;7.70;;
4460;SDS011;2243;48.812;9.232;2023-01-01T16:30:15;13.50;;;9.23;;
4460;SDS011;2243;48.812;9.232;2023-01-01T16:32:46;18.70;;;10.03;;
4460;SDS011;2243;48.812;9.232;2023-01-01T16:35:18;21.20;;;11.80;;
4460;SDS011;2243;48.812;9.232;2023-01-01T16:37:50;13.10;;;9.30;;
4460;SDS011;2243;48.812;9.232;2023-01-01T16:40:21;30.37;;;18.90;;
4460;SDS011;2243;48.812;9.232;2023-01-01T16:42:52;112.53;;;74.13;;
4460;SDS011;2243;48.812;9.232;2023-01-01T16:45:22;163.77;;;104.87;;
4460;SDS011;2243;48.812;9.232;2023-01-01T16:47:56;105.73;;;71.00;;
4460;SDS011;2243;48.812;9.232;2023-01-01T16:50:27;56.67;;;43.70;;
4460;SDS011;2243;48.812;9.232;2023-01-01T16:52:58;57.97;;;35.40;;
4460;SDS011;2243;48.812;9.232;2023-01-01T16:55:29;60.23;;;37.63;;
4460;SDS011;2243;48.812;9.232;2023-01-01T16:58:01;51.00;;;30.53;;
4460;SDS011;2243;48.812;9.232;2023-01-01T17:00:57;36.93;;;25.10;;
4460;SDS011;2243;48.812;9.232;2023-01-01T17:03:30;31.13;;;19.20;;
4460;SDS011;2243;48.812;9.232;2023-01-01T17:06:02;19.17;;;13.47;;
4460;SDS011;2243;48.812;9.232;2023-01-01T17:08:37;19.23;;;14.10;;
4460;SDS011;2243;48.812;9.232;2023-01-01T17:11:12;13.13;;;8.63;;
4460;SDS011;2243;48.812;9.232;2023-01-01T17:13:46;7.63;;;6.83;;
4460;SDS011;2243;48.812;9.232;2023-01-01T17:16:17;8.53;;;6.77;;
4460;SDS011;2243;48.812;9.232;2023-01-01T17:18:58;10.60;;;8.10;;
4460;SDS011;2243;48.812;9.232;2023-01-01T17:21:47;14.23;;;8.00;;
4460;SDS011;2243;48.812;9.232;2023-01-01T17:24:18;13.73;;;5.80;;
4460;SDS011;2243;48.812;9.232;2023-01-01T17:26:51;6.50;;;5.90;;
4460;SDS011;2243;48.812;9.232;2023-01-01T17:29:23;10.43;;;6.70;;
4460;SDS011;2243;48.812;9.232;2023-01-01T17:31:55;10.50;;;6.47;;
4460;SDS011;2243;48.812;9.232;2023-01-01T17:34:25;8.07;;;6.33;;
4460;SDS011;2243;48.812;9.232;2023-01-01T17:36:56;6.20;;;5.37;;
4460;SDS011;2243;48.812;9.232;2023-01-01T17:39:27;9.57;;;4.90;;
4460;SDS011;2243;48.812;9.232;2023-01-01T17:41:58;5.17;;;4.70;;
4460;SDS011;2243;48.812;9.232;2023-01-01T17:44:30;7.87;;;5.20;;
4460;SDS011;2243;48.812;9.232;2023-01-01T17:47:01;6.47;;;5.50;;
4460;SDS011;2243;48.812;9.232;2023-01-01T17:49:32;7.23;;;6.20;;
4460;SDS011;2243;48.812;9.232;2023-01-01T17:52:03;7.40;;;6.23;;
4460;SDS011;2243;48.812;9.232;2023-01-01T17:54:34;8.73;;;7.10;;